Time;durP1;ratioP1;P1;durP2;ratioP2;P2;SDS_P1;SDS_P2;PMS_P1;PMS_P2;Temp;Humidity;BMP_temperature;BMP_pressure;BME280_temperature;BME280_humidity;BME280_pressure;Samples;Min_cycle;Max_cycle;Signal;HPM_P1;HPM_P2
2022/02/12 01:17:43;;;;;;;;;;;;;;;;;;;;;
2022/02/12 01:21:20;;;;;;;;;;;;;;;;;;;;;
2022/02/12 01:24:41;;;;;;;;;;;;;;;;;;;;;
2022/02/12 01:28:27;;;;;;;;;;;;;;;;;;;;;
2022/02/12 01:31:27;;;;;;;39.80;20.85;;;-3.10;99.90;;;;;;6034886;23;20099;-90
2022/02/12 01:34:44;;;;;;;38.15;20.27;;;-3.20;99.90;;;;;;5978506;23;20065;-90
2022/02/12 01:37:57;;;;;;;40.40;19.40;;;-3.20;99.90;;;;;;6032546;23;20549;-89
2022/02/12 01:40:53;;;;;;;44.58;21.30;;;-3.20;99.90;;;;;;6013619;23;20050;-90
2022/02/12 01:43:57;;;;;;;40.67;21.67;;;-3.30;99.90;;;;;;6042956;23;20034;-89
2022/02/12 01:46:52;;;;;;;46.78;20.88;;;-3.30;99.90;;;;;;6122491;23;20249;-89
2022/02/12 01:49:41;;;;;;;44.35;22.38;;;-3.30;99.90;;;;;;6124383;23;20053;-90
2022/02/12 01:52:49;;;;;;;47.20;21.88;;;-3.40;99.90;;;;;;6120606;23;20041;-89
2022/02/12 01:55:58;;;;;;;45.80;20.92;;;-3.40;99.90;;;;;;6121409;23;20026;-90
2022/02/12 01:58:47;;;;;;;48.25;23.13;;;-3.40;99.90;;;;;;6130576;23;20094;-89
2022/02/12 02:01:44;;;;;;;40.83;22.10;;;-3.50;99.90;;;;;;6126290;23;20030;-90
2022/02/12 02:04:35;;;;;;;49.47;22.75;;;-3.50;99.90;;;;;;6120514;23;20092;-89
2022/02/12 02:07:26;;;;;;;;;;;-3.50;99.90;;;;;;6128307;23;20022;-90
2022/02/12 02:10:29;;;;;;;46.88;20.63;;;-3.50;99.90;;;;;;6124508;23;19952;-90
2022/02/12 02:13:29;;;;;;;48.53;22.23;;;-3.50;99.90;;;;;;6123150;23;20278;-91
2022/02/12 02:16:23;;;;;;;58.40;23.83;;;-3.50;99.90;;;;;;6127603;23;20033;-90
2022/02/12 02:19:33;;;;;;;44.63;22.13;;;-3.40;99.90;;;;;;6124132;23;20030;-89
2022/02/12 02:22:34;;;;;;;44.05;22.45;;;-3.30;99.90;;;;;;6108495;23;20377;-90
2022/02/12 02:25:22;;;;;;;54.47;24.17;;;-3.30;99.90;;;;;;6132837;23;20073;-90
2022/02/12 02:28:15;;;;;;;48.58;22.00;;;-3.40;99.90;;;;;;6135001;23;20073;-90
2022/02/12 02:31:26;;;;;;;46.40;22.23;;;-3.40;99.90;;;;;;6134047;23;20026;-91
2022/02/12 02:34:16;;;;;;;54.63;23.27;;;-3.50;99.90;;;;;;6127962;23;20093;-89
2022/02/12 02:37:06;;;;;;;45.38;22.30;;;-3.50;99.90;;;;;;6129016;23;20030;-90
2022/02/12 02:39:56;;;;;;;36.55;20.20;;;-3.50;99.90;;;;;;6127118;23;20029;-90
2022/02/12 02:42:49;;;;;;;43.08;21.15;;;-3.50;99.90;;;;;;6126273;23;20022;-90
2022/02/12 02:45:37;;;;;;;39.60;20.27;;;-3.60;99.90;;;;;;6124044;23;20097;-89
2022/02/12 02:48:27;;;;;;;48.35;21.45;;;-3.60;99.90;;;;;;6123182;23;20022;-90
2022/02/12 02:57:34;;;;;;;47.00;20.77;;;-3.70;99.90;;;;;;6137139;23;20037;-90
2022/02/12 03:00:23;;;;;;;41.75;19.35;;;-3.70;99.90;;;;;;6137695;23;20049;-87
2022/02/12 03:03:14;;;;;;;46.40;20.30;;;-3.60;99.90;;;;;;6136761;23;20029;-89
2022/02/12 03:06:02;;;;;;;39.35;18.50;;;-3.50;99.90;;;;;;6143327;23;20238;-89
2022/02/12 03:08:51;;;;;;;38.80;20.02;;;-3.60;99.90;;;;;;6143663;23;20061;-88
2022/02/12 03:11:39;;;;;;;41.63;19.70;;;-3.60;99.90;;;;;;6145042;23;20025;-86
2022/02/12 03:14:29;;;;;;;45.25;18.77;;;-3.70;99.90;;;;;;6136777;23;20021;-88
2022/02/12 03:17:23;;;;;;;42.75;19.35;;;-3.80;99.90;;;;;;6136269;23;20029;-87
2022/02/12 03:20:20;;;;;;;35.38;17.20;;;-3.80;99.90;;;;;;6140189;23;20069;-86
2022/02/12 03:23:07;;;;;;;38.17;18.85;;;-3.90;99.90;;;;;;6144729;23;20029;-87
2022/02/12 03:25:59;;;;;;;31.17;16.38;;;-3.90;99.90;;;;;;6128190;23;20026;-88
2022/02/12 03:28:53;;;;;;;36.90;17.30;;;-3.90;99.90;;;;;;6124301;23;20022;-90
2022/02/12 03:31:40;;;;;;;34.50;17.45;;;-3.90;99.90;;;;;;6126857;23;20053;-89
2022/02/12 03:34:28;;;;;;;38.67;17.58;;;-3.90;99.90;;;;;;6123934;23;20101;-89
2022/02/12 03:37:15;;;;;;;34.88;18.38;;;-4.00;99.90;;;;;;6122394;23;20056;-89
2022/02/12 03:40:03;;;;;;;36.35;17.00;;;-3.90;99.90;;;;;;6122653;23;20037;-90
2022/02/12 03:42:55;;;;;;;35.40;16.55;;;-3.90;99.90;;;;;;6121465;23;20022;-89
2022/02/12 03:45:43;;;;;;;30.35;16.50;;;-4.00;99.90;;;;;;6121726;23;20029;-89
2022/02/12 03:48:31;;;;;;;33.75;15.95;;;-4.00;99.90;;;;;;6121255;23;20101;-89
2022/02/12 03:51:18;;;;;;;37.90;17.00;;;-4.00;99.90;;;;;;6119326;23;20025;-89
2022/02/12 03:54:06;;;;;;;29.98;15.52;;;-4.00;99.90;;;;;;6122433;23;20049;-87
2022/02/12 03:56:53;;;;;;;33.70;15.85;;;-4.00;99.90;;;;;;6119046;23;20041;-88
2022/02/12 03:59:41;;;;;;;26.67;13.82;;;-4.00;99.90;;;;;;6120846;23;20033;-87
2022/02/12 04:02:28;;;;;;;30.95;14.60;;;-4.10;99.90;;;;;;6119165;23;20105;-89
2022/02/12 04:05:17;;;;;;;25.25;14.10;;;-4.10;99.90;;;;;;6120427;23;20044;-89
2022/02/12 04:08:05;;;;;;;27.73;13.63;;;-4.10;99.90;;;;;;6101777;23;20029;-88
2022/02/12 04:10:52;;;;;;;27.75;14.57;;;-4.20;99.90;;;;;;6121248;23;20021;-89
2022/02/12 04:13:42;;;;;;;29.00;15.30;;;-4.20;99.90;;;;;;6120379;23;20036;-87
2022/02/12 04:16:29;;;;;;;36.08;15.05;;;-4.20;99.90;;;;;;6120538;23;20030;-88
2022/02/12 04:19:18;;;;;;;29.08;15.50;;;-4.20;99.90;;;;;;6122906;23;20036;-89
2022/02/12 04:22:05;;;;;;;45.38;20.10;;;-4.20;99.90;;;;;;6123187;23;20040;-88
2022/02/12 04:24:52;;;;;;;44.65;21.30;;;-4.20;99.90;;;;;;6121299;23;20030;-89
2022/02/12 04:27:42;;;;;;;38.38;21.02;;;-4.20;99.90;;;;;;6123901;23;20022;-90
2022/02/12 04:30:35;;;;;;;58.50;23.90;;;-4.30;99.90;;;;;;6121493;23;20078;-89
2022/02/12 04:33:29;;;;;;;44.47;22.40;;;-4.30;99.90;;;;;;6121562;23;20033;-90
2022/02/12 04:36:16;;;;;;;54.33;25.42;;;-4.30;99.90;;;;;;6119531;23;20026;-89
2022/02/12 04:39:06;;;;;;;53.00;24.98;;;-4.30;99.90;;;;;;6118662;23;20030;-88
2022/02/12 04:41:55;;;;;;;46.00;23.17;;;-4.30;99.90;;;;;;6124181;23;20030;-88
2022/02/12 04:44:48;;;;;;;43.10;23.48;;;-4.30;99.90;;;;;;6120526;23;20053;-88
2022/02/12 04:47:41;;;;;;;47.40;22.45;;;-4.40;99.90;;;;;;6121157;23;20057;-90
2022/02/12 04:50:29;;;;;;;52.10;24.00;;;-4.40;99.90;;;;;;6123281;23;20032;-89
2022/02/12 04:53:17;;;;;;;55.70;25.23;;;-4.40;99.90;;;;;;6131044;23;20022;-88
2022/02/12 04:56:04;;;;;;;57.40;25.88;;;-4.40;99.90;;;;;;6137687;23;20026;-89
2022/02/12 04:58:52;;;;;;;43.25;20.45;;;-4.40;99.90;;;;;;6125978;23;20103;-89
2022/02/12 05:01:40;;;;;;;46.13;22.52;;;-4.50;99.90;;;;;;6100716;23;20048;-87
2022/02/12 05:04:28;;;;;;;49.08;21.35;;;-4.50;99.90;;;;;;6122430;23;20029;-89
2022/02/12 05:07:15;;;;;;;48.33;20.48;;;-4.50;99.90;;;;;;6122713;23;20040;-88
2022/02/12 05:10:04;;;;;;;57.28;21.10;;;-4.40;99.90;;;;;;6119873;23;20037;-86
2022/02/12 05:12:54;;;;;;;96.32;26.05;;;-4.30;99.90;;;;;;6122228;23;20022;-86
2022/02/12 05:15:41;;;;;;;89.68;24.08;;;-4.20;99.90;;;;;;6133918;23;20026;-87
2022/02/12 05:18:29;;;;;;;63.25;24.42;;;-4.20;99.90;;;;;;6121518;23;20025;-89
2022/02/12 05:21:16;;;;;;;81.97;24.90;;;-4.10;99.90;;;;;;6117524;23;20030;-89
2022/02/12 05:24:04;;;;;;;65.30;24.05;;;-4.10;99.90;;;;;;6118563;23;20036;-87
2022/02/12 05:26:52;;;;;;;67.63;24.42;;;-4.10;99.90;;;;;;6120286;23;20022;-88
2022/02/12 05:29:42;;;;;;;127.45;27.48;;;-4.10;99.90;;;;;;6120853;23;20018;-88
2022/02/12 05:32:29;;;;;;;107.25;26.70;;;-4.10;99.90;;;;;;6120991;23;20026;-89
2022/02/12 05:35:17;;;;;;;135.95;27.55;;;-4.10;99.90;;;;;;6118444;23;20088;-89
2022/02/12 05:38:04;;;;;;;78.07;27.88;;;-4.10;99.90;;;;;;6122318;23;20030;-88
2022/02/12 05:40:51;;;;;;;127.75;29.77;;;-4.20;99.90;;;;;;6120962;23;20030;-89
2022/02/12 05:43:39;;;;;;;86.28;29.08;;;-4.30;99.90;;;;;;6123224;23;20044;-88
2022/02/12 05:46:29;;;;;;;83.13;26.52;;;-4.30;99.90;;;;;;6122825;23;20053;-88
2022/02/12 05:49:17;;;;;;;148.93;28.70;;;-4.30;99.90;;;;;;6122659;23;20084;-90
2022/02/12 05:52:06;;;;;;;69.18;26.30;;;-4.30;99.90;;;;;;6120892;23;20033;-88
2022/02/12 05:54:55;;;;;;;57.28;26.05;;;-4.30;99.90;;;;;;6122305;23;20026;-89
2022/02/12 05:57:43;;;;;;;77.53;26.95;;;-4.40;99.90;;;;;;6120545;23;20033;-88
2022/02/12 06:00:37;;;;;;;78.63;24.48;;;-4.50;99.90;;;;;;6121003;23;20033;-87
2022/02/12 06:03:27;;;;;;;68.72;24.70;;;-4.50;99.90;;;;;;6122720;23;20107;-86
2022/02/12 06:06:19;;;;;;;62.70;25.00;;;-4.60;99.90;;;;;;6121899;23;20103;-88
2022/02/12 06:22:29;;;;;;;55.92;22.65;;;-4.90;99.90;;;;;;6154004;23;20014;-87
2022/02/12 06:25:17;;;;;;;82.25;25.40;;;-4.90;99.90;;;;;;6121133;23;20097;-86
2022/02/12 06:28:09;;;;;;;49.05;22.35;;;-5.00;99.90;;;;;;6126290;23;20104;-88
2022/02/12 06:31:07;;;;;;;;;;;;;;;;;;;;;
2022/02/12 06:34:06;;;;;;;44.70;21.52;;;-5.10;99.90;;;;;;6121209;23;20039;-89
2022/02/12 06:37:01;;;;;;;48.50;22.38;;;-5.10;99.90;;;;;;6120664;23;20030;-90
2022/02/12 06:40:19;;;;;;;45.85;21.48;;;-5.10;99.90;;;;;;6121543;23;20026;-88
2022/02/12 06:43:07;;;;;;;51.15;22.20;;;-5.20;99.90;;;;;;6120734;23;20030;-88
2022/02/12 06:45:54;;;;;;;46.45;22.63;;;-5.00;99.90;;;;;;6122660;23;20133;-86
2022/02/12 06:48:44;;;;;;;51.72;24.90;;;-4.90;99.90;;;;;;6122922;23;20121;-87
2022/02/12 06:51:38;;;;;;;47.45;22.35;;;-4.90;99.90;;;;;;6122681;23;20358;-87
2022/02/12 06:54:30;;;;;;;44.47;22.45;;;-4.90;99.90;;;;;;6121271;23;20030;-87
2022/02/12 06:57:18;;;;;;;48.25;23.58;;;-4.90;99.90;;;;;;6120537;23;20384;-87
2022/02/12 07:00:12;;;;;;;45.13;21.70;;;-4.90;99.90;;;;;;6120586;23;20333;-88
2022/02/12 07:03:10;;;;;;;46.58;23.27;;;-4.90;99.90;;;;;;6120022;23;20501;-87
2022/02/12 07:06:17;;;;;;;46.80;22.77;;;-4.80;99.90;;;;;;6125414;23;20192;-88
2022/02/12 07:09:12;;;;;;;54.65;23.70;;;-4.70;99.90;;;;;;6135570;23;20042;-88
2022/02/12 07:12:27;;;;;;;55.78;22.45;;;-4.60;99.90;;;;;;6127946;23;20029;-88
2022/02/12 07:15:16;;;;;;;52.35;24.20;;;-4.50;99.90;;;;;;6121228;23;20034;-88
2022/02/12 07:18:21;;;;;;;54.08;23.83;;;-4.40;99.90;;;;;;6123004;23;20032;-88
2022/02/12 07:21:12;;;;;;;44.20;22.20;;;-4.20;99.90;;;;;;6123513;23;20094;-87
2022/02/12 07:24:15;;;;;;;58.58;24.80;;;-4.00;99.90;;;;;;6119187;23;20149;-86
2022/02/12 07:27:14;;;;;;;69.60;26.60;;;-3.80;99.90;;;;;;6121141;23;20176;-89
2022/02/12 07:30:56;;;;;;;77.03;33.28;;;-3.30;99.90;;;;;;6047705;23;20326;-89
2022/02/12 07:34:25;;;;;;;;;;;;;;;;;;;;;
2022/02/12 07:37:29;;;;;;;66.13;28.02;;;-1.70;99.90;;;;;;5976348;24;20029;-87
2022/02/12 07:41:16;;;;;;;;;;;;;;;;;;;;;
2022/02/12 07:45:10;;;;;;;;;;;;;;;;;;;;;
2022/02/12 07:48:50;;;;;;;;;;;;;;;;;;;;;
2022/02/12 07:59:56;;;;;;;50.15;24.02;;;0.00;99.90;;;;;;5867252;24;20447;-89
2022/02/12 08:04:03;;;;;;;;;;;;;;;;;;;;;
2022/02/12 08:12:47;;;;;;;;;;;;;;;;;;;;;
2022/02/12 10:32:36;;;;;;;;;;;;;;;;;;;;;
2022/02/12 10:50:46;;;;;;;;;;;;;;;;;;;;;
2022/02/12 10:53:43;;;;;;;;;;;;;;;;;;;;;
2022/02/12 11:42:04;;;;;;;11.18;5.07;;;14.10;48.70;;;;;;5575810;22;15087779;-91
2022/02/12 11:54:20;;;;;;;;;;;;;;;;;;;;;
2022/02/12 12:14:20;;;;;;;;;;;;;;;;;;;;;
2022/02/12 12:17:23;;;;;;;9.85;4.28;;;13.70;47.30;;;;;;5856971;24;20501;-88
2022/02/12 12:53:45;;;;;;;;;;;;;;;;;;;;;
2022/02/12 14:13:29;;;;;;;4.07;2.40;;;13.60;40.60;;;;;;5131161;27;20463;-92
2022/02/12 14:17:29;;;;;;;;;;;;;;;;;;;;;
2022/02/12 14:20:41;;;;;;;7.63;2.53;;;15.20;37.40;;;;;;5052873;28;20053;-88
2022/02/12 14:24:08;;;;;;;4.78;2.88;;;14.90;37.00;;;;;;5037513;28;20132;-91
2022/02/12 14:45:01;;;;;;;;;;;;;;;;;;;;;
2022/02/12 14:48:13;;;;;;;8.73;4.05;;;11.70;44.20;;;;;;4858071;29;20440;-90
2022/02/12 14:51:24;;;;;;;6.80;3.40;;;10.60;45.90;;;;;;4953268;28;20058;-91
2022/02/12 14:54:23;;;;;;;9.30;3.53;;;9.90;48.20;;;;;;5024827;28;20065;-90
2022/02/12 14:57:47;;;;;;;5.68;3.20;;;9.70;48.60;;;;;;5010190;28;20042;-89
2022/02/12 15:01:05;;;;;;;5.25;3.22;;;9.60;48.80;;;;;;5024347;28;20050;-90
2022/02/12 15:07:39;;;;;;;8.20;3.58;;;9.60;49.20;;;;;;5035847;28;20077;-92
2022/02/12 15:10:37;;;;;;;5.32;2.95;;;9.40;49.90;;;;;;5141257;27;20058;-91
2022/02/12 15:13:36;;;;;;;5.65;3.70;;;9.60;50.50;;;;;;5132822;28;20051;-90
2022/02/12 18:56:06;;;;;;;;;;;1.30;99.90;;;;;;5058450;22;30048588;-88
2022/02/12 18:59:36;;;;;;;15.85;8.65;;;1.40;99.90;;;;;;6107992;23;19917;-89
2022/02/12 19:03:34;;;;;;;12.35;8.18;;;1.50;99.90;;;;;;5990114;23;20043;-91
2022/02/12 19:06:46;;;;;;;30.83;12.82;;;1.60;99.90;;;;;;5920184;24;20419;-90
2022/02/12 19:09:57;;;;;;;59.13;21.35;;;1.70;99.90;;;;;;5922321;24;20037;-91
2022/02/12 19:13:35;;;;;;;;;;;;;;;;;;;;;
2022/02/12 19:20:58;;;;;;;28.52;12.70;;;1.30;99.90;;;;;;5768620;24;20034;-88
2022/02/12 19:24:15;;;;;;;94.97;28.58;;;1.20;99.90;;;;;;5769813;24;20372;-90
2022/02/12 19:27:03;;;;;;;31.52;14.95;;;1.00;99.90;;;;;;5899566;24;20033;-89
2022/02/12 19:30:31;;;;;;;;;;;;;;;;;;;;;
2022/02/12 19:33:51;;;;;;;16.65;11.20;;;0.70;99.90;;;;;;6086475;23;20278;-89
2022/02/12 19:37:08;;;;;;;16.30;8.52;;;0.70;99.90;;;;;;6097177;23;20037;-90
2022/02/12 19:40:06;;;;;;;15.68;8.30;;;0.80;99.90;;;;;;6095275;23;20030;-89
2022/02/12 19:43:03;;;;;;;13.88;7.72;;;0.80;99.90;;;;;;6103231;23;20045;-89
2022/02/12 19:45:53;;;;;;;12.30;8.10;;;0.90;99.90;;;;;;6105925;23;20350;-86
2022/02/12 19:48:43;;;;;;;13.82;7.38;;;0.90;99.90;;;;;;6110628;22;20060;-87
2022/02/12 19:51:33;;;;;;;12.30;7.70;;;0.80;99.90;;;;;;6129171;22;20026;-86
2022/02/12 19:54:20;;;;;;;19.50;8.50;;;0.80;99.90;;;;;;6110599;23;20210;-87
2022/02/12 19:57:10;;;;;;;17.40;9.60;;;0.80;99.90;;;;;;6135413;22;20065;-88
2022/02/12 20:00:12;;;;;;;16.95;10.00;;;0.80;99.90;;;;;;6115472;22;20042;-86
2022/02/12 20:03:19;;;;;;;;;;;;;;;;;;;;;
2022/02/12 20:06:54;;;;;;;19.52;10.27;;;0.70;99.90;;;;;;6108191;23;20030;-90
2022/02/12 20:09:45;;;;;;;18.05;10.60;;;0.70;99.90;;;;;;6107712;23;20038;-89
2022/02/12 20:12:47;;;;;;;39.10;17.88;;;0.60;99.90;;;;;;6099229;23;20127;-87
2022/02/12 20:15:39;;;;;;;55.08;25.67;;;0.40;99.90;;;;;;6100155;23;20041;-89
2022/02/12 20:18:47;;;;;;;50.22;23.02;;;0.30;99.90;;;;;;6096345;23;20038;-89
2022/02/12 20:21:45;;;;;;;57.13;23.75;;;0.20;99.90;;;;;;6096094;23;20072;-88
2022/02/12 20:24:38;;;;;;;27.55;15.00;;;0.10;99.90;;;;;;6093730;23;20061;-90
2022/02/12 20:28:03;;;;;;;;;;;;;;;;;;;;;
2022/02/12 20:48:18;;;;;;;;;;;;;;;;;;;;;
2022/02/12 20:59:38;;;;;;;33.08;15.02;;;-0.20;99.90;;;;;;6009574;23;20007;-89
2022/02/12 21:08:00;;;;;;;28.17;14.02;;;0.10;99.90;;;;;;5930543;24;20068;-89
2022/02/12 21:11:26;;;;;;;;;;;;;;;;;;;;;
2022/02/12 21:23:32;;;;;;;;;;;;;;;;;;;;;
2022/02/12 21:31:14;;;;;;;17.42;10.60;;;0.30;99.90;;;;;;5893122;24;20098;-89
2022/02/12 21:34:37;;;;;;;;;;;;;;;;;;;;;
2022/02/12 22:03:19;;;;;;;;;;;;;;;;;;;;;
2022/02/12 22:06:30;;;;;;;24.25;12.10;;;-0.30;99.90;;;;;;6036851;23;20079;-88
2022/02/12 22:09:39;;;;;;;21.27;11.35;;;-0.30;99.90;;;;;;6092303;23;20067;-89
2022/02/12 22:12:38;;;;;;;18.58;10.02;;;-0.20;99.90;;;;;;6183738;23;20051;-88
2022/02/12 22:15:28;;;;;;;15.50;9.85;;;-0.10;99.90;;;;;;6182598;23;20433;-89
2022/02/12 22:18:16;;;;;;;17.92;10.43;;;0.00;99.90;;;;;;6162103;23;20025;-88
2022/02/12 22:21:18;;;;;;;17.95;9.65;;;-0.10;99.90;;;;;;6179822;23;20182;-89
2022/02/12 22:25:08;;;;;;;21.52;11.07;;;-0.10;99.90;;;;;;6161062;23;20025;-90
2022/02/12 22:28:39;;;;;;;;;;;;;;;;;;;;;
2022/02/12 22:32:00;;;;;;;18.65;10.93;;;-0.60;99.90;;;;;;6180882;23;20184;-90
2022/02/12 22:35:16;;;;;;;19.88;11.95;;;-0.80;99.90;;;;;;6037603;23;20114;-88
2022/02/12 22:39:06;;;;;;;;;;;;;;;;;;;;;
2022/02/12 22:42:24;;;;;;;24.38;12.18;;;-1.10;99.90;;;;;;5976385;23;20048;-89
2022/02/12 22:45:58;;;;;;;;;;;;;;;;;;;;;
2022/02/12 22:49:32;;;;;;;30.67;13.27;;;-0.80;99.90;;;;;;5895132;24;20101;-91
2022/02/12 22:52:37;;;;;;;20.52;12.52;;;-0.80;99.90;;;;;;5943821;23;20043;-90
2022/02/12 22:56:23;;;;;;;;;;;;;;;;;;;;;
2022/02/12 22:59:23;;;;;;;;;;;;;;;;;;;;;
2022/02/12 23:05:35;;;;;;;32.08;17.42;;;-1.50;99.90;;;;;;6092560;23;20041;-90
2022/02/12 23:08:35;;;;;;;;;;;;;;;;;;;;;
2022/02/12 23:11:36;;;;;;;25.27;15.23;;;-1.70;99.90;;;;;;6092109;23;20094;-89
2022/02/12 23:14:34;;;;;;;29.85;15.95;;;-1.80;99.90;;;;;;6092888;23;20033;-88
2022/02/12 23:20:58;;;;;;;27.23;16.23;;;-1.90;99.90;;;;;;6105738;23;20152;-90
2022/02/12 23:27:45;;;;;;;27.33;14.60;;;-1.80;99.90;;;;;;6094806;23;20114;-90
2022/02/12 23:30:42;;;;;;;24.27;15.48;;;-1.80;99.90;;;;;;6098509;23;20033;-89
2022/02/12 23:34:26;;;;;;;27.75;15.05;;;-1.90;99.90;;;;;;6094942;23;20026;-89
2022/02/12 23:37:22;;;;;;;28.17;14.27;;;-1.90;99.90;;;;;;6089409;23;20374;-90
2022/02/12 23:40:50;;;;;;;28.48;15.73;;;-1.80;99.90;;;;;;6089243;23;20026;-89
2022/02/12 23:44:06;;;;;;;25.15;13.98;;;-1.80;99.90;;;;;;6090397;23;20026;-89
2022/02/12 23:47:23;;;;;;;27.45;15.45;;;-1.70;99.90;;;;;;6111117;23;20034;-88
2022/02/12 23:50:35;;;;;;;22.73;14.40;;;-1.80;99.90;;;;;;6093485;23;20085;-90
2022/02/12 23:58:18;;;;;;;26.65;15.07;;;-1.70;99.90;;;;;;5992423;23;20032;-86
